Main page
METAR-TAF:

METAR-TAF

Airports :

King Fahd International Airport

Dammam, Saudi Arabia

latitude: 26-28N, longitude: 049-47E, elevation: 22 m

Current weather observation

The report was made 21 minutes ago, at 02:00 UTC
Wind 3 kt from the West
Temperature 14°C
Humidity 88%
Pressure 1020 hPa
Visibility: 6000 m

METAR: OEDF 220200Z 28003KT 6000 NSC 14/12 Q1020 TEMPO 5000

Time: 05:21 (02:21 UTC)

Forecast

The report was made 3 hours and 51 minutes ago, at 22:30 UTC
Forecast valid from 22 at 00 UTC to 23 at 06 UTC
Wind 9 kt from the West/Northwest
Visibility: 8000 m
Probability 30% :
Temporary
from 22 at 00 UTC to 22 at 05 UTC
Visibility: 5000 m
mist
Becoming
from 22 at 07 UTC to 22 at 09 UTC
Wind 16 kt from the North
Visibility 10 km or more
no clouds below 1500 m and no cumulonimbus
Becoming
from 22 at 19 UTC to 22 at 21 UTC
Wind 5 kt from the West/Northwest
Visibility: 7000 m

TAF: OEDF 212230Z 2200/2306 30009KT 8000 NSC PROB30 TEMPO 2200/2205 5000 BR BECMG 2207/2209 36016KT CAVOK BECMG 2219/2221 30005KT 7000 NSC

Weather observations and forecasts of more than 4000 airports (METAR and TAF reports).

The available stations are represented by yellow and red dots on the map.

Hover mouse over dot to see the name of the station.

Then click to see weather observations and forecasts.

To change the map : click on the green buttons with a black cross to zoom in, on the green button with a dash to zoom out, or on the green arrows for adjacent maps.


METAR-TAF: